sensor_id;sensor_type;location;lat;lon;timestamp;temperature;humidity
8856;DHT22;4464;50.882;4.730;2023-12-20T00:00:13;6.40;99.90
8856;DHT22;4464;50.882;4.730;2023-12-20T00:02:40;6.50;99.90
8856;DHT22;4464;50.882;4.730;2023-12-20T00:05:10;6.40;99.90
8856;DHT22;4464;50.882;4.730;2023-12-20T00:07:36;6.40;99.90
8856;DHT22;4464;50.882;4.730;2023-12-20T00:10:01;6.40;99.90
8856;DHT22;4464;50.882;4.730;2023-12-20T00:12:28;6.40;99.90
8856;DHT22;4464;50.882;4.730;2023-12-20T00:14:53;6.30;99.90
8856;DHT22;4464;50.882;4.730;2023-12-20T00:17:19;6.30;99.90
8856;DHT22;4464;50.882;4.730;2023-12-20T00:19:45;6.30;99.90
8856;DHT22;4464;50.882;4.730;2023-12-20T00:22:11;6.40;99.90
8856;DHT22;4464;50.882;4.730;2023-12-20T00:24:36;6.30;99.90
8856;DHT22;4464;50.882;4.730;2023-12-20T00:27:04;6.30;99.90
8856;DHT22;4464;50.882;4.730;2023-12-20T00:29:30;6.40;99.90
8856;DHT22;4464;50.882;4.730;2023-12-20T00:31:56;6.40;99.90
8856;DHT22;4464;50.882;4.730;2023-12-20T00:34:21;6.50;99.90
8856;DHT22;4464;50.882;4.730;2023-12-20T00:36:47;6.60;99.90
8856;DHT22;4464;50.882;4.730;2023-12-20T00:39:13;6.50;99.90
8856;DHT22;4464;50.882;4.730;2023-12-20T00:41:38;6.50;99.90
8856;DHT22;4464;50.882;4.730;2023-12-20T00:44:04;6.40;99.90
8856;DHT22;4464;50.882;4.730;2023-12-20T00:46:32;6.40;99.90
8856;DHT22;4464;50.882;4.730;2023-12-20T00:49:03;6.30;99.90
8856;DHT22;4464;50.882;4.730;2023-12-20T00:51:28;6.30;99.90
8856;DHT22;4464;50.882;4.730;2023-12-20T00:53:57;6.30;99.90
8856;DHT22;4464;50.882;4.730;2023-12-20T00:56:25;6.30;99.90
8856;DHT22;4464;50.882;4.730;2023-12-20T00:58:51;6.30;99.90
8856;DHT22;4464;50.882;4.730;2023-12-20T01:01:17;6.30;99.90
8856;DHT22;4464;50.882;4.730;2023-12-20T01:03:43;6.30;99.90
8856;DHT22;4464;50.882;4.730;2023-12-20T01:06:08;6.30;99.90
8856;DHT22;4464;50.882;4.730;2023-12-20T01:08:37;6.30;99.90
8856;DHT22;4464;50.882;4.730;2023-12-20T01:11:06;6.20;99.90
8856;DHT22;4464;50.882;4.730;2023-12-20T01:13:34;6.20;99.90
8856;DHT22;4464;50.882;4.730;2023-12-20T01:16:00;6.10;99.90
8856;DHT22;4464;50.882;4.730;2023-12-20T01:18:29;6.20;99.90
8856;DHT22;4464;50.882;4.730;2023-12-20T01:20:55;6.20;99.90
8856;DHT22;4464;50.882;4.730;2023-12-20T01:23:21;6.20;99.90
8856;DHT22;4464;50.882;4.730;2023-12-20T01:25:46;6.10;99.90
8856;DHT22;4464;50.882;4.730;2023-12-20T01:28:12;6.10;99.90
8856;DHT22;4464;50.882;4.730;2023-12-20T01:30:38;6.10;99.90
8856;DHT22;4464;50.882;4.730;2023-12-20T01:33:04;6.10;99.90
8856;DHT22;4464;50.882;4.730;2023-12-20T01:35:32;6.10;99.90
8856;DHT22;4464;50.882;4.730;2023-12-20T01:38:02;6.10;99.90
8856;DHT22;4464;50.882;4.730;2023-12-20T01:40:28;6.10;99.90
8856;DHT22;4464;50.882;4.730;2023-12-20T01:43:01;6.10;99.90
8856;DHT22;4464;50.882;4.730;2023-12-20T01:45:29;6.10;99.90
8856;DHT22;4464;50.882;4.730;2023-12-20T01:47:59;6.00;99.90
8856;DHT22;4464;50.882;4.730;2023-12-20T01:50:25;6.10;99.90
8856;DHT22;4464;50.882;4.730;2023-12-20T01:52:54;6.00;99.90
8856;DHT22;4464;50.882;4.730;2023-12-20T01:55:23;6.00;99.90
8856;DHT22;4464;50.882;4.730;2023-12-20T01:57:50;6.00;99.90
8856;DHT22;4464;50.882;4.730;2023-12-20T02:00:17;6.00;99.90
8856;DHT22;4464;50.882;4.730;2023-12-20T02:02:45;6.00;99.90
8856;DHT22;4464;50.882;4.730;2023-12-20T02:05:13;6.00;99.90
8856;DHT22;4464;50.882;4.730;2023-12-20T02:07:39;6.00;99.90
8856;DHT22;4464;50.882;4.730;2023-12-20T02:10:05;6.00;99.90
8856;DHT22;4464;50.882;4.730;2023-12-20T02:12:33;6.10;99.90
8856;DHT22;4464;50.882;4.730;2023-12-20T02:14:59;6.10;99.90
8856;DHT22;4464;50.882;4.730;2023-12-20T02:17:25;6.10;99.90
8856;DHT22;4464;50.882;4.730;2023-12-20T02:19:51;6.10;99.90
8856;DHT22;4464;50.882;4.730;2023-12-20T02:22:17;6.00;99.90
8856;DHT22;4464;50.882;4.730;2023-12-20T02:24:43;6.00;99.90
8856;DHT22;4464;50.882;4.730;2023-12-20T02:27:08;6.00;99.90
8856;DHT22;4464;50.882;4.730;2023-12-20T02:29:35;5.90;99.90
8856;DHT22;4464;50.882;4.730;2023-12-20T02:32:01;5.90;99.90
8856;DHT22;4464;50.882;4.730;2023-12-20T02:34:27;5.90;99.90
8856;DHT22;4464;50.882;4.730;2023-12-20T02:36:55;5.80;99.90
8856;DHT22;4464;50.882;4.730;2023-12-20T02:39:23;5.80;99.90
8856;DHT22;4464;50.882;4.730;2023-12-20T02:41:49;5.80;99.90
8856;DHT22;4464;50.882;4.730;2023-12-20T02:44:15;5.80;99.90
8856;DHT22;4464;50.882;4.730;2023-12-20T02:46:43;5.80;99.90
8856;DHT22;4464;50.882;4.730;2023-12-20T02:49:11;5.90;99.90
8856;DHT22;4464;50.882;4.730;2023-12-20T02:51:37;5.90;99.90
8856;DHT22;4464;50.882;4.730;2023-12-20T02:54:05;6.00;99.90
8856;DHT22;4464;50.882;4.730;2023-12-20T02:56:34;6.10;99.90
8856;DHT22;4464;50.882;4.730;2023-12-20T02:59:00;6.10;99.90
8856;DHT22;4464;50.882;4.730;2023-12-20T03:01:29;6.20;99.90
8856;DHT22;4464;50.882;4.730;2023-12-20T03:03:54;6.20;99.90
8856;DHT22;4464;50.882;4.730;2023-12-20T03:06:23;6.20;99.90
8856;DHT22;4464;50.882;4.730;2023-12-20T03:08:51;6.20;99.90
8856;DHT22;4464;50.882;4.730;2023-12-20T03:11:17;6.20;99.90
8856;DHT22;4464;50.882;4.730;2023-12-20T03:13:42;6.10;99.90
8856;DHT22;4464;50.882;4.730;2023-12-20T03:16:11;6.10;99.90
8856;DHT22;4464;50.882;4.730;2023-12-20T03:18:36;6.10;99.90
8856;DHT22;4464;50.882;4.730;2023-12-20T03:21:05;6.10;99.90
8856;DHT22;4464;50.882;4.730;2023-12-20T03:23:31;6.10;99.90
8856;DHT22;4464;50.882;4.730;2023-12-20T03:25:59;6.10;99.90
8856;DHT22;4464;50.882;4.730;2023-12-20T03:28:26;6.00;99.90
8856;DHT22;4464;50.882;4.730;2023-12-20T03:30:54;5.90;99.90
8856;DHT22;4464;50.882;4.730;2023-12-20T03:33:20;5.90;99.90
8856;DHT22;4464;50.882;4.730;2023-12-20T03:35:46;6.00;99.90
8856;DHT22;4464;50.882;4.730;2023-12-20T03:38:13;6.10;99.90
8856;DHT22;4464;50.882;4.730;2023-12-20T03:40:42;6.10;99.90
8856;DHT22;4464;50.882;4.730;2023-12-20T03:43:07;6.10;99.90
8856;DHT22;4464;50.882;4.730;2023-12-20T03:45:33;6.10;99.90
8856;DHT22;4464;50.882;4.730;2023-12-20T03:47:59;6.10;99.90
8856;DHT22;4464;50.882;4.730;2023-12-20T03:50:26;6.20;99.90
8856;DHT22;4464;50.882;4.730;2023-12-20T03:52:52;6.20;99.90
8856;DHT22;4464;50.882;4.730;2023-12-20T03:55:18;6.10;99.90
8856;DHT22;4464;50.882;4.730;2023-12-20T03:57:46;6.10;99.90
8856;DHT22;4464;50.882;4.730;2023-12-20T04:00:12;6.10;99.90
8856;DHT22;4464;50.882;4.730;2023-12-20T04:02:42;6.00;99.90
8856;DHT22;4464;50.882;4.730;2023-12-20T04:05:09;6.00;99.90
8856;DHT22;4464;50.882;4.730;2023-12-20T04:07:35;6.00;99.90
8856;DHT22;4464;50.882;4.730;2023-12-20T04:10:02;6.00;99.90
8856;DHT22;4464;50.882;4.730;2023-12-20T04:12:29;6.10;99.90
8856;DHT22;4464;50.882;4.730;2023-12-20T04:14:55;6.10;99.90
8856;DHT22;4464;50.882;4.730;2023-12-20T04:17:21;6.10;99.90
8856;DHT22;4464;50.882;4.730;2023-12-20T04:19:51;6.10;99.90
8856;DHT22;4464;50.882;4.730;2023-12-20T04:22:22;6.10;99.90
8856;DHT22;4464;50.882;4.730;2023-12-20T04:24:47;6.10;99.90
8856;DHT22;4464;50.882;4.730;2023-12-20T04:27:13;6.00;99.90
8856;DHT22;4464;50.882;4.730;2023-12-20T04:29:39;6.00;99.90
8856;DHT22;4464;50.882;4.730;2023-12-20T04:32:05;6.00;99.90
8856;DHT22;4464;50.882;4.730;2023-12-20T04:34:31;6.00;99.90
8856;DHT22;4464;50.882;4.730;2023-12-20T04:36:56;6.00;99.90
8856;DHT22;4464;50.882;4.730;2023-12-20T04:39:25;6.00;99.90
8856;DHT22;4464;50.882;4.730;2023-12-20T04:41:50;6.00;99.90
8856;DHT22;4464;50.882;4.730;2023-12-20T04:44:16;6.00;99.90
8856;DHT22;4464;50.882;4.730;2023-12-20T04:46:44;6.00;99.90
8856;DHT22;4464;50.882;4.730;2023-12-20T04:49:10;5.90;99.90
8856;DHT22;4464;50.882;4.730;2023-12-20T04:51:38;6.00;99.90
8856;DHT22;4464;50.882;4.730;2023-12-20T04:54:06;6.00;99.90
8856;DHT22;4464;50.882;4.730;2023-12-20T04:56:31;6.00;99.90
8856;DHT22;4464;50.882;4.730;2023-12-20T04:58:57;6.00;99.90
8856;DHT22;4464;50.882;4.730;2023-12-20T05:01:23;6.00;99.90
8856;DHT22;4464;50.882;4.730;2023-12-20T05:03:49;5.90;99.90
8856;DHT22;4464;50.882;4.730;2023-12-20T05:06:14;5.90;99.90
8856;DHT22;4464;50.882;4.730;2023-12-20T05:08:40;5.90;99.90
8856;DHT22;4464;50.882;4.730;2023-12-20T05:11:06;5.90;99.90
8856;DHT22;4464;50.882;4.730;2023-12-20T05:13:32;5.90;99.90
8856;DHT22;4464;50.882;4.730;2023-12-20T05:15:57;5.90;99.90
8856;DHT22;4464;50.882;4.730;2023-12-20T05:18:23;5.90;99.90
8856;DHT22;4464;50.882;4.730;2023-12-20T05:20:51;5.90;99.90
8856;DHT22;4464;50.882;4.730;2023-12-20T05:23:17;5.90;99.90
8856;DHT22;4464;50.882;4.730;2023-12-20T05:25:45;5.80;99.90
8856;DHT22;4464;50.882;4.730;2023-12-20T05:28:11;5.80;99.90
8856;DHT22;4464;50.882;4.730;2023-12-20T05:30:39;5.80;99.90
8856;DHT22;4464;50.882;4.730;2023-12-20T05:33:04;5.80;99.90
8856;DHT22;4464;50.882;4.730;2023-12-20T05:35:30;5.80;99.90
8856;DHT22;4464;50.882;4.730;2023-12-20T05:37:56;5.70;99.90
8856;DHT22;4464;50.882;4.730;2023-12-20T05:40:24;5.80;99.90
8856;DHT22;4464;50.882;4.730;2023-12-20T05:42:49;5.80;99.90
8856;DHT22;4464;50.882;4.730;2023-12-20T05:45:15;5.70;99.90
8856;DHT22;4464;50.882;4.730;2023-12-20T05:47:41;5.70;99.90
8856;DHT22;4464;50.882;4.730;2023-12-20T05:50:07;5.70;99.90
8856;DHT22;4464;50.882;4.730;2023-12-20T05:52:33;5.80;99.90
8856;DHT22;4464;50.882;4.730;2023-12-20T05:54:59;5.80;99.90
8856;DHT22;4464;50.882;4.730;2023-12-20T05:57:27;5.80;99.90
8856;DHT22;4464;50.882;4.730;2023-12-20T05:59:53;5.80;99.90
8856;DHT22;4464;50.882;4.730;2023-12-20T06:02:19;5.80;99.90
8856;DHT22;4464;50.882;4.730;2023-12-20T06:04:45;5.80;99.90
8856;DHT22;4464;50.882;4.730;2023-12-20T06:07:17;5.80;99.90
8856;DHT22;4464;50.882;4.730;2023-12-20T06:09:42;5.90;99.90
8856;DHT22;4464;50.882;4.730;2023-12-20T06:12:08;5.90;99.90
8856;DHT22;4464;50.882;4.730;2023-12-20T06:14:34;5.90;99.90
8856;DHT22;4464;50.882;4.730;2023-12-20T06:17:03;5.90;99.90
8856;DHT22;4464;50.882;4.730;2023-12-20T06:19:28;5.90;99.90
8856;DHT22;4464;50.882;4.730;2023-12-20T06:21:57;5.90;99.90
8856;DHT22;4464;50.882;4.730;2023-12-20T06:24:22;5.90;99.90
8856;DHT22;4464;50.882;4.730;2023-12-20T06:26:52;6.00;99.90
8856;DHT22;4464;50.882;4.730;2023-12-20T06:29:18;6.00;99.90
8856;DHT22;4464;50.882;4.730;2023-12-20T06:31:44;5.90;99.90
8856;DHT22;4464;50.882;4.730;2023-12-20T06:34:09;5.90;99.90
8856;DHT22;4464;50.882;4.730;2023-12-20T06:36:36;5.90;99.90
8856;DHT22;4464;50.882;4.730;2023-12-20T06:39:01;5.90;99.90
8856;DHT22;4464;50.882;4.730;2023-12-20T06:41:28;6.00;99.90
8856;DHT22;4464;50.882;4.730;2023-12-20T06:43:53;6.00;99.90
8856;DHT22;4464;50.882;4.730;2023-12-20T06:46:21;6.00;99.90
8856;DHT22;4464;50.882;4.730;2023-12-20T06:48:47;6.00;99.90
8856;DHT22;4464;50.882;4.730;2023-12-20T06:51:15;5.90;99.90
8856;DHT22;4464;50.882;4.730;2023-12-20T06:53:41;5.90;99.90
8856;DHT22;4464;50.882;4.730;2023-12-20T06:56:10;5.80;99.90
8856;DHT22;4464;50.882;4.730;2023-12-20T06:58:36;5.80;99.90
8856;DHT22;4464;50.882;4.730;2023-12-20T07:01:03;5.80;99.90
8856;DHT22;4464;50.882;4.730;2023-12-20T07:03:29;5.80;99.90
8856;DHT22;4464;50.882;4.730;2023-12-20T07:05:55;5.80;99.90
8856;DHT22;4464;50.882;4.730;2023-12-20T07:08:21;5.80;99.90
8856;DHT22;4464;50.882;4.730;2023-12-20T07:10:49;5.70;99.90
8856;DHT22;4464;50.882;4.730;2023-12-20T07:13:15;5.70;99.90
8856;DHT22;4464;50.882;4.730;2023-12-20T07:15:40;5.70;99.90
8856;DHT22;4464;50.882;4.730;2023-12-20T07:18:06;5.70;99.90
8856;DHT22;4464;50.882;4.730;2023-12-20T07:20:34;5.70;99.90
8856;DHT22;4464;50.882;4.730;2023-12-20T07:23:00;5.70;99.90
8856;DHT22;4464;50.882;4.730;2023-12-20T07:25:26;5.70;99.90
8856;DHT22;4464;50.882;4.730;2023-12-20T07:27:52;5.80;99.90
8856;DHT22;4464;50.882;4.730;2023-12-20T07:30:17;5.80;99.90
8856;DHT22;4464;50.882;4.730;2023-12-20T07:32:43;5.90;99.90
8856;DHT22;4464;50.882;4.730;2023-12-20T07:35:09;5.80;99.90
8856;DHT22;4464;50.882;4.730;2023-12-20T07:37:34;5.80;99.90
8856;DHT22;4464;50.882;4.730;2023-12-20T07:40:03;5.80;99.90
8856;DHT22;4464;50.882;4.730;2023-12-20T07:42:31;5.80;99.90
8856;DHT22;4464;50.882;4.730;2023-12-20T07:44:57;5.70;99.90
8856;DHT22;4464;50.882;4.730;2023-12-20T07:47:22;5.80;99.90
8856;DHT22;4464;50.882;4.730;2023-12-20T07:49:51;5.70;99.90
8856;DHT22;4464;50.882;4.730;2023-12-20T07:52:23;5.80;99.90
8856;DHT22;4464;50.882;4.730;2023-12-20T07:54:53;5.80;99.90
8856;DHT22;4464;50.882;4.730;2023-12-20T07:57:19;5.80;99.90
8856;DHT22;4464;50.882;4.730;2023-12-20T07:59:45;5.70;99.90
8856;DHT22;4464;50.882;4.730;2023-12-20T08:02:11;5.80;99.90
8856;DHT22;4464;50.882;4.730;2023-12-20T08:04:41;5.70;99.90
8856;DHT22;4464;50.882;4.730;2023-12-20T08:07:09;5.80;99.90
8856;DHT22;4464;50.882;4.730;2023-12-20T08:09:37;5.80;99.90
8856;DHT22;4464;50.882;4.730;2023-12-20T08:12:03;5.80;99.90
8856;DHT22;4464;50.882;4.730;2023-12-20T08:14:29;5.80;99.90
8856;DHT22;4464;50.882;4.730;2023-12-20T08:16:55;5.90;99.90
8856;DHT22;4464;50.882;4.730;2023-12-20T08:19:21;5.90;99.90
8856;DHT22;4464;50.882;4.730;2023-12-20T08:21:46;5.90;99.90
8856;DHT22;4464;50.882;4.730;2023-12-20T08:24:12;6.00;99.90
8856;DHT22;4464;50.882;4.730;2023-12-20T08:26:38;6.10;99.90
8856;DHT22;4464;50.882;4.730;2023-12-20T08:29:03;6.20;99.90
8856;DHT22;4464;50.882;4.730;2023-12-20T08:31:29;6.30;99.90
8856;DHT22;4464;50.882;4.730;2023-12-20T08:33:55;6.50;99.90
8856;DHT22;4464;50.882;4.730;2023-12-20T08:36:21;6.50;99.90
8856;DHT22;4464;50.882;4.730;2023-12-20T08:38:49;6.50;99.90
8856;DHT22;4464;50.882;4.730;2023-12-20T08:41:16;6.60;99.90
8856;DHT22;4464;50.882;4.730;2023-12-20T08:43:43;6.60;99.90
8856;DHT22;4464;50.882;4.730;2023-12-20T08:46:14;6.70;99.90
8856;DHT22;4464;50.882;4.730;2023-12-20T08:48:45;6.70;99.90
8856;DHT22;4464;50.882;4.730;2023-12-20T08:51:13;6.80;99.90
8856;DHT22;4464;50.882;4.730;2023-12-20T08:53:38;6.80;99.90
8856;DHT22;4464;50.882;4.730;2023-12-20T08:56:04;6.80;99.90
8856;DHT22;4464;50.882;4.730;2023-12-20T08:58:30;6.80;99.90
8856;DHT22;4464;50.882;4.730;2023-12-20T09:00:56;6.80;99.90
8856;DHT22;4464;50.882;4.730;2023-12-20T09:03:25;6.80;99.90
8856;DHT22;4464;50.882;4.730;2023-12-20T09:05:51;6.80;99.90
8856;DHT22;4464;50.882;4.730;2023-12-20T09:08:16;6.90;99.90
8856;DHT22;4464;50.882;4.730;2023-12-20T09:10:42;6.90;99.90
8856;DHT22;4464;50.882;4.730;2023-12-20T09:13:08;6.90;99.90
8856;DHT22;4464;50.882;4.730;2023-12-20T09:15:33;7.00;99.90
8856;DHT22;4464;50.882;4.730;2023-12-20T09:18:02;7.00;99.90
8856;DHT22;4464;50.882;4.730;2023-12-20T09:20:27;7.00;99.90
8856;DHT22;4464;50.882;4.730;2023-12-20T09:22:53;7.00;99.90
8856;DHT22;4464;50.882;4.730;2023-12-20T09:25:19;7.00;99.90
8856;DHT22;4464;50.882;4.730;2023-12-20T09:27:45;6.90;99.90
8856;DHT22;4464;50.882;4.730;2023-12-20T09:30:10;6.90;99.90
8856;DHT22;4464;50.882;4.730;2023-12-20T09:32:36;7.00;99.90
8856;DHT22;4464;50.882;4.730;2023-12-20T09:35:07;7.00;99.90
8856;DHT22;4464;50.882;4.730;2023-12-20T09:37:35;7.10;99.90
8856;DHT22;4464;50.882;4.730;2023-12-20T09:40:03;7.10;99.90
8856;DHT22;4464;50.882;4.730;2023-12-20T09:42:44;7.20;99.90
8856;DHT22;4464;50.882;4.730;2023-12-20T09:45:15;7.20;99.90
8856;DHT22;4464;50.882;4.730;2023-12-20T09:47:43;7.20;99.90
8856;DHT22;4464;50.882;4.730;2023-12-20T09:50:09;7.30;99.90
8856;DHT22;4464;50.882;4.730;2023-12-20T09:52:36;7.40;99.90
8856;DHT22;4464;50.882;4.730;2023-12-20T09:55:07;7.50;99.90
8856;DHT22;4464;50.882;4.730;2023-12-20T09:57:33;7.60;99.90
8856;DHT22;4464;50.882;4.730;2023-12-20T10:00:05;7.60;99.90
8856;DHT22;4464;50.882;4.730;2023-12-20T10:02:32;7.90;99.90
8856;DHT22;4464;50.882;4.730;2023-12-20T10:05:00;8.30;99.90
8856;DHT22;4464;50.882;4.730;2023-12-20T10:07:26;8.40;99.90
8856;DHT22;4464;50.882;4.730;2023-12-20T10:09:54;8.30;99.90
8856;DHT22;4464;50.882;4.730;2023-12-20T10:12:20;8.30;99.90
8856;DHT22;4464;50.882;4.730;2023-12-20T10:14:46;8.20;99.90
8856;DHT22;4464;50.882;4.730;2023-12-20T10:17:12;8.20;99.90
8856;DHT22;4464;50.882;4.730;2023-12-20T10:19:40;8.20;99.90
8856;DHT22;4464;50.882;4.730;2023-12-20T10:22:08;8.20;99.90
8856;DHT22;4464;50.882;4.730;2023-12-20T10:24:33;8.20;99.90
8856;DHT22;4464;50.882;4.730;2023-12-20T10:27:09;8.20;99.90
8856;DHT22;4464;50.882;4.730;2023-12-20T10:29:38;8.20;99.90
8856;DHT22;4464;50.882;4.730;2023-12-20T10:32:25;8.20;99.90
8856;DHT22;4464;50.882;4.730;2023-12-20T10:34:52;8.20;99.90
8856;DHT22;4464;50.882;4.730;2023-12-20T10:37:18;8.10;99.90
8856;DHT22;4464;50.882;4.730;2023-12-20T10:39:51;8.10;99.90
8856;DHT22;4464;50.882;4.730;2023-12-20T10:42:21;8.10;99.90
8856;DHT22;4464;50.882;4.730;2023-12-20T10:44:47;8.20;99.90
8856;DHT22;4464;50.882;4.730;2023-12-20T10:47:14;8.20;99.90
8856;DHT22;4464;50.882;4.730;2023-12-20T10:49:40;8.20;99.90
8856;DHT22;4464;50.882;4.730;2023-12-20T10:52:09;8.10;99.90
8856;DHT22;4464;50.882;4.730;2023-12-20T10:54:36;8.20;99.90
8856;DHT22;4464;50.882;4.730;2023-12-20T10:57:05;8.20;99.90
8856;DHT22;4464;50.882;4.730;2023-12-20T10:59:33;8.20;99.90
8856;DHT22;4464;50.882;4.730;2023-12-20T11:02:02;8.20;99.90
8856;DHT22;4464;50.882;4.730;2023-12-20T11:04:47;8.20;99.90
8856;DHT22;4464;50.882;4.730;2023-12-20T11:07:22;8.20;99.90
8856;DHT22;4464;50.882;4.730;2023-12-20T11:09:59;8.30;99.90
8856;DHT22;4464;50.882;4.730;2023-12-20T11:14:58;8.30;99.90
8856;DHT22;4464;50.882;4.730;2023-12-20T11:17:28;8.40;99.90
8856;DHT22;4464;50.882;4.730;2023-12-20T11:22:26;8.40;99.90
8856;DHT22;4464;50.882;4.730;2023-12-20T11:24:54;8.40;99.90
8856;DHT22;4464;50.882;4.730;2023-12-20T11:27:23;8.40;99.90
8856;DHT22;4464;50.882;4.730;2023-12-20T11:29:54;8.50;99.90
8856;DHT22;4464;50.882;4.730;2023-12-20T11:37:40;8.30;99.90
8856;DHT22;4464;50.882;4.730;2023-12-20T11:40:15;8.30;99.90
8856;DHT22;4464;50.882;4.730;2023-12-20T11:42:42;8.20;99.90
8856;DHT22;4464;50.882;4.730;2023-12-20T11:45:12;8.30;99.90
8856;DHT22;4464;50.882;4.730;2023-12-20T11:47:44;8.40;99.90
8856;DHT22;4464;50.882;4.730;2023-12-20T11:50:11;8.40;99.90
8856;DHT22;4464;50.882;4.730;2023-12-20T11:52:41;8.50;99.90
8856;DHT22;4464;50.882;4.730;2023-12-20T11:55:06;8.40;99.90
8856;DHT22;4464;50.882;4.730;2023-12-20T11:57:33;8.40;99.90
8856;DHT22;4464;50.882;4.730;2023-12-20T11:59:59;8.40;99.90
8856;DHT22;4464;50.882;4.730;2023-12-20T12:02:25;8.40;99.90
8856;DHT22;4464;50.882;4.730;2023-12-20T12:04:51;8.40;99.90
8856;DHT22;4464;50.882;4.730;2023-12-20T12:07:17;8.40;99.90
8856;DHT22;4464;50.882;4.730;2023-12-20T12:09:43;8.40;99.90
8856;DHT22;4464;50.882;4.730;2023-12-20T12:12:12;8.30;99.90
8856;DHT22;4464;50.882;4.730;2023-12-20T12:14:38;8.20;99.90
8856;DHT22;4464;50.882;4.730;2023-12-20T12:17:10;8.10;99.90
8856;DHT22;4464;50.882;4.730;2023-12-20T12:19:39;8.10;99.90
8856;DHT22;4464;50.882;4.730;2023-12-20T12:22:10;8.10;99.90
8856;DHT22;4464;50.882;4.730;2023-12-20T12:24:45;8.00;99.90
8856;DHT22;4464;50.882;4.730;2023-12-20T12:27:11;8.00;99.90
8856;DHT22;4464;50.882;4.730;2023-12-20T12:29:37;8.10;99.90
8856;DHT22;4464;50.882;4.730;2023-12-20T12:32:08;8.10;99.90
8856;DHT22;4464;50.882;4.730;2023-12-20T12:34:35;8.10;99.90
8856;DHT22;4464;50.882;4.730;2023-12-20T12:37:06;8.10;99.90
8856;DHT22;4464;50.882;4.730;2023-12-20T12:39:34;8.00;99.90
8856;DHT22;4464;50.882;4.730;2023-12-20T12:41:59;8.00;99.90
8856;DHT22;4464;50.882;4.730;2023-12-20T12:44:30;8.00;99.90
8856;DHT22;4464;50.882;4.730;2023-12-20T12:46:55;8.00;99.90
8856;DHT22;4464;50.882;4.730;2023-12-20T12:49:22;8.00;99.90
8856;DHT22;4464;50.882;4.730;2023-12-20T12:51:51;8.00;99.90
8856;DHT22;4464;50.882;4.730;2023-12-20T12:54:17;8.10;99.90
8856;DHT22;4464;50.882;4.730;2023-12-20T12:56:44;8.10;99.90
8856;DHT22;4464;50.882;4.730;2023-12-20T12:59:10;8.10;99.90
8856;DHT22;4464;50.882;4.730;2023-12-20T13:01:36;8.10;99.90
8856;DHT22;4464;50.882;4.730;2023-12-20T13:04:02;8.00;99.90
8856;DHT22;4464;50.882;4.730;2023-12-20T13:06:29;8.10;99.90
8856;DHT22;4464;50.882;4.730;2023-12-20T13:08:55;8.00;99.90
8856;DHT22;4464;50.882;4.730;2023-12-20T13:11:23;8.00;99.90
8856;DHT22;4464;50.882;4.730;2023-12-20T13:13:49;8.00;99.90
8856;DHT22;4464;50.882;4.730;2023-12-20T13:16:14;8.00;99.90
8856;DHT22;4464;50.882;4.730;2023-12-20T13:18:41;8.00;99.90
8856;DHT22;4464;50.882;4.730;2023-12-20T13:21:08;8.00;99.90
8856;DHT22;4464;50.882;4.730;2023-12-20T13:23:34;8.00;99.90
8856;DHT22;4464;50.882;4.730;2023-12-20T13:26:02;8.00;99.90
8856;DHT22;4464;50.882;4.730;2023-12-20T13:28:28;8.10;99.90
8856;DHT22;4464;50.882;4.730;2023-12-20T13:30:54;8.10;99.90
8856;DHT22;4464;50.882;4.730;2023-12-20T13:33:20;8.10;99.90
8856;DHT22;4464;50.882;4.730;2023-12-20T13:35:45;8.10;99.90
8856;DHT22;4464;50.882;4.730;2023-12-20T13:38:13;8.10;99.90
8856;DHT22;4464;50.882;4.730;2023-12-20T13:40:39;8.10;99.90
8856;DHT22;4464;50.882;4.730;2023-12-20T13:43:08;8.20;99.90
8856;DHT22;4464;50.882;4.730;2023-12-20T13:45:40;8.20;99.90
8856;DHT22;4464;50.882;4.730;2023-12-20T13:48:06;8.20;99.90
8856;DHT22;4464;50.882;4.730;2023-12-20T13:50:32;8.20;99.90
8856;DHT22;4464;50.882;4.730;2023-12-20T13:52:59;8.20;99.90
8856;DHT22;4464;50.882;4.730;2023-12-20T13:55:26;8.10;99.90
8856;DHT22;4464;50.882;4.730;2023-12-20T13:57:52;8.10;99.90
8856;DHT22;4464;50.882;4.730;2023-12-20T14:00:21;8.10;99.90
8856;DHT22;4464;50.882;4.730;2023-12-20T14:02:47;8.20;99.90
8856;DHT22;4464;50.882;4.730;2023-12-20T14:05:15;8.20;99.90
8856;DHT22;4464;50.882;4.730;2023-12-20T14:07:43;8.10;99.90
8856;DHT22;4464;50.882;4.730;2023-12-20T14:10:16;8.10;99.90
8856;DHT22;4464;50.882;4.730;2023-12-20T14:12:42;8.20;99.90
8856;DHT22;4464;50.882;4.730;2023-12-20T14:15:08;8.20;99.90
8856;DHT22;4464;50.882;4.730;2023-12-20T14:17:37;8.20;99.90
8856;DHT22;4464;50.882;4.730;2023-12-20T14:20:06;8.30;99.90
8856;DHT22;4464;50.882;4.730;2023-12-20T14:22:32;8.30;99.90
8856;DHT22;4464;50.882;4.730;2023-12-20T14:24:58;8.30;99.90
8856;DHT22;4464;50.882;4.730;2023-12-20T14:27:24;8.40;99.90
8856;DHT22;4464;50.882;4.730;2023-12-20T14:29:55;8.50;99.90
8856;DHT22;4464;50.882;4.730;2023-12-20T14:32:21;8.60;99.90
8856;DHT22;4464;50.882;4.730;2023-12-20T14:34:47;8.70;99.90
8856;DHT22;4464;50.882;4.730;2023-12-20T14:37:18;8.70;99.90
8856;DHT22;4464;50.882;4.730;2023-12-20T14:39:43;8.80;99.90
8856;DHT22;4464;50.882;4.730;2023-12-20T14:42:14;8.80;99.90
8856;DHT22;4464;50.882;4.730;2023-12-20T14:44:43;8.90;99.90
8856;DHT22;4464;50.882;4.730;2023-12-20T14:47:09;9.00;99.90
8856;DHT22;4464;50.882;4.730;2023-12-20T14:49:35;9.00;99.90
8856;DHT22;4464;50.882;4.730;2023-12-20T14:52:01;9.00;99.90
8856;DHT22;4464;50.882;4.730;2023-12-20T14:54:27;9.00;99.90
8856;DHT22;4464;50.882;4.730;2023-12-20T14:56:53;9.00;99.90
8856;DHT22;4464;50.882;4.730;2023-12-20T14:59:18;9.00;99.90
8856;DHT22;4464;50.882;4.730;2023-12-20T15:01:47;8.90;99.90
8856;DHT22;4464;50.882;4.730;2023-12-20T15:04:13;9.00;99.90
8856;DHT22;4464;50.882;4.730;2023-12-20T15:06:39;9.00;99.90
8856;DHT22;4464;50.882;4.730;2023-12-20T15:09:05;8.90;99.90
8856;DHT22;4464;50.882;4.730;2023-12-20T15:11:31;9.00;99.90
8856;DHT22;4464;50.882;4.730;2023-12-20T15:13:57;9.00;99.90
8856;DHT22;4464;50.882;4.730;2023-12-20T15:16:24;9.00;99.90
8856;DHT22;4464;50.882;4.730;2023-12-20T15:18:50;9.00;99.90
8856;DHT22;4464;50.882;4.730;2023-12-20T15:21:21;9.00;99.90
8856;DHT22;4464;50.882;4.730;2023-12-20T15:23:55;9.00;99.90
8856;DHT22;4464;50.882;4.730;2023-12-20T15:26:37;9.00;99.90
8856;DHT22;4464;50.882;4.730;2023-12-20T15:29:03;9.00;99.90
8856;DHT22;4464;50.882;4.730;2023-12-20T15:31:30;9.00;99.90
8856;DHT22;4464;50.882;4.730;2023-12-20T15:33:59;9.00;99.90
8856;DHT22;4464;50.882;4.730;2023-12-20T15:36:25;9.00;99.90
8856;DHT22;4464;50.882;4.730;2023-12-20T15:38:51;9.10;99.90
8856;DHT22;4464;50.882;4.730;2023-12-20T15:41:21;9.10;99.90
8856;DHT22;4464;50.882;4.730;2023-12-20T15:43:50;9.10;99.90
8856;DHT22;4464;50.882;4.730;2023-12-20T15:46:18;9.10;99.90
8856;DHT22;4464;50.882;4.730;2023-12-20T15:48:43;9.10;99.90
8856;DHT22;4464;50.882;4.730;2023-12-20T15:51:11;9.20;99.90
8856;DHT22;4464;50.882;4.730;2023-12-20T15:53:37;9.10;99.90
8856;DHT22;4464;50.882;4.730;2023-12-20T15:56:08;9.20;99.90
8856;DHT22;4464;50.882;4.730;2023-12-20T15:58:34;9.20;99.90
8856;DHT22;4464;50.882;4.730;2023-12-20T16:00:59;9.20;99.90
8856;DHT22;4464;50.882;4.730;2023-12-20T16:03:28;9.20;99.90
8856;DHT22;4464;50.882;4.730;2023-12-20T16:05:54;9.20;99.90
8856;DHT22;4464;50.882;4.730;2023-12-20T16:08:19;9.20;99.90
8856;DHT22;4464;50.882;4.730;2023-12-20T16:10:50;9.20;99.90
8856;DHT22;4464;50.882;4.730;2023-12-20T16:13:16;9.20;99.90
8856;DHT22;4464;50.882;4.730;2023-12-20T16:15:45;9.10;99.90
8856;DHT22;4464;50.882;4.730;2023-12-20T16:18:18;9.10;99.90
8856;DHT22;4464;50.882;4.730;2023-12-20T16:20:43;9.00;99.90
8856;DHT22;4464;50.882;4.730;2023-12-20T16:23:09;9.00;99.90
8856;DHT22;4464;50.882;4.730;2023-12-20T16:25:35;9.00;99.90